HET weather

Esmeralda Tower II Helipad
Miguel Hidalgo, Ciudad de México, Mexico

Public forecast

Using degrees Celsius for public forecast. Weather courtesy of forecast.io.

Closest aviation weather report (METAR) to Esmeralda Tower II Helipad

Closest report is Licenciado Benito Juarez International Airport, 7.6 nm (14.0 km) E. Retrieved 2019/12/12 12:45 UTC (31 minutes ago):

MMMX 121245Z 04005KT 5SM BKN220 08/06 A3044 NOSIG RMK 8/002 HZY BR N NE

Closest aviation forecast (TAF) to Esmeralda Tower II Helipad

Closest forecast is Licenciado Benito Juarez International Airport, 7.6 nm (14.0 km) E. Retrieved 2019/12/12 12:09 UTC (1 hour ago):

TAF MMMX 121102Z 1212/1318 32005KT 5SM HZ SCT250 TX22/1222Z TN07/1212Z TEMPO 1212/1216 3SM BR HZ FM121800 22012KT 6SM HZ SCT020 BKN250 TEMPO 1223/1303 BKN025 FM130600 34005KT P6SM SCT250 FM131700 33012KT P6SM SCT020 BKN250